HESH METAR and TAF | Updated Today

HESH METAR

Sharm El Sheikh International Airport

Observation time: 8:13 hr. ago

HESH 290300Z 36006KT CAVOK 27/11 Q1007

Need help? Read our tutorial on how to read METARs or read the parsed version below.

Sharm El Sheikh International Airport (HESH) METAR

  • Weather conditions on Sun, 29 May 2022 03:00:00 +0000 (8:13 hr. ago):
  • Present conditions: Dry
  • Clouds: Clear skies
  • Visibility: Greater than 10 km
  • Wind: 360 degrees at 6 knots
  • Temperature: 27 celsius
  • Dew point: 11 celsius
  • Pressure: 1007 millibars
  • Remarks: None


Useful to know...

  • Codes: HESH/SSH
  • Airport elevation: 143ft
  • Municipality: Sharm el-Sheikh
  • Country: Egypt
  • Continent: Asia
  • Wikipedia page

HESH TAF

Sharm El Sheikh International Airport

TAF HESH 281700Z 2818/2924 36011KT CAVOK
Observation time: 18:13 hr. ago
Need help? Read our tutorial on how to read TAFs or read the parsed version below.

Parsed version of TAF for Sharm El Sheikh International Airport (HESH)

  • From 28 May at 18:00 UTC, to day 29 of the month at 24:00 UTC
  • Visibility: Greater than 10 km
  • Wind: 360 degrees at 11

Airports near HESH

HETR Weather
Region:

El Tor Airport

Not found in our database